createdAt,value
2023-04-11T00:01:09.109Z,34.00
2023-04-11T00:03:39.026Z,33.63
2023-04-11T00:06:06.075Z,33.60
2023-04-11T00:08:32.443Z,33.83
2023-04-11T00:10:58.853Z,34.42
2023-04-11T00:13:26.699Z,34.40
2023-04-11T00:15:55.559Z,33.70
2023-04-11T00:18:22.812Z,33.58
2023-04-11T00:20:49.361Z,33.30
2023-04-11T00:23:16.089Z,33.08
2023-04-11T00:25:42.620Z,32.95
2023-04-11T00:28:10.447Z,33.83
2023-04-11T00:30:36.931Z,33.20
2023-04-11T00:33:04.018Z,33.13
2023-04-11T00:35:34.444Z,33.10
2023-04-11T00:38:02.081Z,33.58
2023-04-11T00:40:28.601Z,33.45
2023-04-11T00:42:56.441Z,32.72
2023-04-11T00:45:23.418Z,32.83
2023-04-11T00:47:51.096Z,32.55
2023-04-11T00:50:18.782Z,32.97
2023-04-11T00:52:49.562Z,33.20
2023-04-11T00:55:16.704Z,33.17
2023-04-11T00:57:44.667Z,32.38
2023-04-11T01:00:11.979Z,31.73
2023-04-11T01:02:43.019Z,32.15
2023-04-11T01:05:11.462Z,33.17
2023-04-11T01:07:39.888Z,32.05
2023-04-11T01:10:09.468Z,32.33
2023-04-11T01:12:37.296Z,33.35
2023-04-11T01:15:04.649Z,33.25
2023-04-11T01:17:32.522Z,33.13
2023-04-11T01:19:59.962Z,32.80
2023-04-11T01:22:28.026Z,32.50
2023-04-11T01:24:54.448Z,33.58
2023-04-11T01:27:20.874Z,33.30
2023-04-11T01:29:47.313Z,32.88
2023-04-11T01:32:13.721Z,33.42
2023-04-11T01:34:43.872Z,33.53
2023-04-11T01:37:10.490Z,33.90
2023-04-11T01:39:36.953Z,33.83
2023-04-11T01:42:04.512Z,34.22
2023-04-11T01:44:33.072Z,33.58
2023-04-11T01:46:59.844Z,33.13
2023-04-11T01:49:26.469Z,32.53
2023-04-11T01:51:53.194Z,32.95
2023-04-11T01:54:19.633Z,32.35
2023-04-11T01:56:46.403Z,31.55
2023-04-11T01:59:13.113Z,31.90
2023-04-11T02:01:42.262Z,31.15
2023-04-11T02:04:09.032Z,31.08
2023-04-11T02:06:35.996Z,31.23
2023-04-11T02:09:02.481Z,30.23
2023-04-11T02:11:29.221Z,28.92
2023-04-11T02:13:55.626Z,28.80
2023-04-11T02:16:25.670Z,27.65
2023-04-11T02:18:53.231Z,27.73
2023-04-11T02:21:19.670Z,27.63
2023-04-11T02:23:46.093Z,27.63
2023-04-11T02:26:12.721Z,27.33
2023-04-11T02:28:39.122Z,28.90
2023-04-11T02:31:06.034Z,28.42
2023-04-11T02:33:32.614Z,27.65
2023-04-11T02:35:59.104Z,27.88
2023-04-11T02:38:25.814Z,27.73
2023-04-11T02:40:52.254Z,28.40
2023-04-11T02:43:18.723Z,27.90
2023-04-11T02:45:45.163Z,28.70
2023-04-11T02:48:11.757Z,28.00
2023-04-11T02:50:41.132Z,28.20
2023-04-11T02:53:08.074Z,28.00
2023-04-11T02:55:35.050Z,27.45
2023-04-11T02:58:01.651Z,27.67
2023-04-11T03:00:29.232Z,28.83
2023-04-11T03:02:56.808Z,25.00
2023-04-11T03:05:23.409Z,21.98
2023-04-11T03:07:49.998Z,21.90
2023-04-11T03:10:16.568Z,21.85
2023-04-11T03:12:43.106Z,23.05
2023-04-11T03:15:09.807Z,24.83
2023-04-11T03:17:36.312Z,24.73
2023-04-11T03:20:07.099Z,24.23
2023-04-11T03:22:33.511Z,24.90
2023-04-11T03:24:59.920Z,24.70
2023-04-11T03:27:27.049Z,24.52
2023-04-11T03:29:53.734Z,23.83
2023-04-11T03:32:20.352Z,23.27
2023-04-11T03:34:46.825Z,23.33
2023-04-11T03:37:13.215Z,22.90
2023-04-11T03:39:39.611Z,23.13
2023-04-11T03:42:06.064Z,21.90
2023-04-11T03:44:32.562Z,20.98
2023-04-11T03:46:59.004Z,20.73
2023-04-11T03:49:25.468Z,21.00
2023-04-11T03:51:52.129Z,20.50
2023-04-11T03:54:18.704Z,19.42
2023-04-11T03:56:45.232Z,19.63
2023-04-11T03:59:11.735Z,19.13
2023-04-11T04:01:38.598Z,18.25
2023-04-11T04:04:05.865Z,18.08
2023-04-11T04:06:32.411Z,16.65
2023-04-11T04:08:59.712Z,17.00
2023-04-11T04:11:26.238Z,15.98
2023-04-11T04:13:52.866Z,15.70
2023-04-11T04:16:19.383Z,15.65
2023-04-11T04:18:45.977Z,15.82
2023-04-11T04:21:12.663Z,15.52
2023-04-11T04:23:47.466Z,14.73
2023-04-11T04:26:16.236Z,14.70
2023-04-11T04:28:46.387Z,14.15
2023-04-11T04:31:13.216Z,13.55
2023-04-11T04:33:42.752Z,13.63
2023-04-11T04:36:12.276Z,13.40
2023-04-11T04:38:42.051Z,13.10
2023-04-11T04:41:14.957Z,13.05
2023-04-11T04:43:44.761Z,13.13
2023-04-11T04:46:11.362Z,12.27
2023-04-11T04:48:38.132Z,13.07
2023-04-11T04:51:05.590Z,12.43
2023-04-11T04:53:34.635Z,12.30
2023-04-11T04:56:01.859Z,12.68
2023-04-11T04:58:28.361Z,12.25
2023-04-11T05:00:56.287Z,12.13
2023-04-11T05:03:23.165Z,11.60
2023-04-11T05:05:49.887Z,12.13
2023-04-11T05:08:19.471Z,12.60
2023-04-11T05:10:46.159Z,11.75
2023-04-11T05:13:12.740Z,11.93
2023-04-11T05:15:39.176Z,11.32
2023-04-11T05:18:05.842Z,11.18
2023-04-11T05:20:32.271Z,11.15
2023-04-11T05:22:58.742Z,10.65
2023-04-11T05:25:25.964Z,10.55
2023-04-11T05:27:52.371Z,10.95
2023-04-11T05:30:18.910Z,11.70
2023-04-11T05:32:46.443Z,11.85
2023-04-11T05:35:13.108Z,11.27
2023-04-11T05:37:40.059Z,11.13
2023-04-11T05:40:08.850Z,11.02
2023-04-11T05:42:35.597Z,11.35
2023-04-11T05:45:01.983Z,10.80
2023-04-11T05:47:28.451Z,10.73
2023-04-11T05:49:54.920Z,10.48
2023-04-11T05:52:21.356Z,11.90
2023-04-11T05:54:47.812Z,10.75
2023-04-11T05:57:14.227Z,10.95
2023-04-11T05:59:40.630Z,10.98
2023-04-11T06:02:07.099Z,11.23
2023-04-11T06:04:33.928Z,10.75
2023-04-11T06:07:02.467Z,11.48
2023-04-11T06:09:29.401Z,11.15
2023-04-11T06:11:57.683Z,11.55
2023-04-11T06:14:24.124Z,10.57
2023-04-11T06:16:50.588Z,11.30
2023-04-11T06:19:17.003Z,11.15
2023-04-11T06:21:43.403Z,12.02
2023-04-11T06:24:10.974Z,11.40
2023-04-11T06:26:37.367Z,11.70
2023-04-11T06:29:05.713Z,11.23
2023-04-11T06:31:33.150Z,11.23
2023-04-11T06:34:02.823Z,11.10
2023-04-11T06:36:29.842Z,11.45
2023-04-11T06:38:56.277Z,11.52
2023-04-11T06:41:23.176Z,11.95
2023-04-11T06:43:49.616Z,11.65
2023-04-11T06:46:16.196Z,12.00
2023-04-11T06:48:42.907Z,11.85
2023-04-11T06:51:10.552Z,12.40
2023-04-11T06:53:37.218Z,11.90
2023-04-11T06:56:04.008Z,11.70
2023-04-11T06:58:30.562Z,11.90
2023-04-11T07:00:56.998Z,11.77
2023-04-11T07:03:25.174Z,11.23
2023-04-11T07:05:52.168Z,10.80
2023-04-11T07:08:18.776Z,11.20
2023-04-11T07:10:45.446Z,11.02
2023-04-11T07:13:12.009Z,11.65
2023-04-11T07:15:38.522Z,13.40
2023-04-11T07:18:05.023Z,14.18
2023-04-11T07:20:33.059Z,16.45
2023-04-11T07:22:59.515Z,17.98
2023-04-11T07:25:30.378Z,18.92
2023-04-11T07:27:57.043Z,20.42
2023-04-11T07:30:23.687Z,21.75
2023-04-11T07:32:50.228Z,22.20
2023-04-11T07:35:16.950Z,22.42
2023-04-11T07:37:43.399Z,22.40
2023-04-11T07:40:11.878Z,22.80
2023-04-11T07:42:38.418Z,23.58
2023-04-11T07:45:05.716Z,22.73
2023-04-11T07:47:32.184Z,24.20
2023-04-11T07:49:58.952Z,24.88
2023-04-11T07:52:26.017Z,25.83
2023-04-11T07:54:52.512Z,26.17
2023-04-11T07:57:19.113Z,26.23
2023-04-11T07:59:46.232Z,26.90
2023-04-11T08:02:12.955Z,26.83
2023-04-11T08:04:39.787Z,27.00
2023-04-11T08:07:06.874Z,28.00
2023-04-11T08:09:34.380Z,27.75
2023-04-11T08:12:01.732Z,28.08
2023-04-11T08:14:28.170Z,28.65
2023-04-11T08:16:54.758Z,28.48
2023-04-11T08:19:21.305Z,28.35
2023-04-11T08:21:47.748Z,28.30
2023-04-11T08:24:14.173Z,28.75
2023-04-11T08:26:40.746Z,28.40
2023-04-11T08:29:11.346Z,29.25
2023-04-11T08:31:44.525Z,29.45
2023-04-11T08:34:12.046Z,29.35
2023-04-11T08:36:38.947Z,29.20
2023-04-11T08:39:05.430Z,28.48
2023-04-11T08:41:32.302Z,29.60
2023-04-11T08:43:59.263Z,30.30
2023-04-11T08:46:25.754Z,29.60
2023-04-11T08:48:52.334Z,29.98
2023-04-11T08:51:29.271Z,30.02
2023-04-11T08:54:00.484Z,30.60
2023-04-11T08:56:26.903Z,31.25
2023-04-11T08:58:53.365Z,30.90
2023-04-11T09:01:33.134Z,31.83
2023-04-11T09:04:01.504Z,32.40
2023-04-11T09:06:33.550Z,31.33
2023-04-11T09:09:02.092Z,31.20
2023-04-11T09:11:28.580Z,30.02
2023-04-11T09:14:11.234Z,31.45
2023-04-11T09:16:53.048Z,29.83
2023-04-11T09:19:27.874Z,28.75
2023-04-11T09:21:56.772Z,30.33
2023-04-11T09:24:23.414Z,29.40
2023-04-11T09:26:50.957Z,31.15
2023-04-11T09:29:40.750Z,29.90
2023-04-11T09:32:07.745Z,30.50
2023-04-11T09:34:37.760Z,29.55
2023-04-11T09:37:04.480Z,31.35
2023-04-11T09:39:32.573Z,30.75
2023-04-11T09:41:59.346Z,30.50
2023-04-11T09:44:38.039Z,29.95
2023-04-11T09:47:04.960Z,28.50
2023-04-11T09:49:34.172Z,26.08
2023-04-11T09:52:01.277Z,24.10
2023-04-11T09:54:28.842Z,23.83
2023-04-11T09:56:57.137Z,22.33
2023-04-11T09:59:26.713Z,21.55
2023-04-11T10:01:53.538Z,21.08
2023-04-11T10:04:21.260Z,20.90
2023-04-11T10:07:02.159Z,20.08
2023-04-11T10:09:29.795Z,20.35
2023-04-11T10:11:56.826Z,20.88
2023-04-11T10:14:43.789Z,22.50
2023-04-11T10:17:21.829Z,23.13
2023-04-11T10:19:51.575Z,23.70
2023-04-11T10:22:43.783Z,23.50
2023-04-11T10:25:17.481Z,23.35
2023-04-11T10:27:49.971Z,22.55
2023-04-11T10:30:16.869Z,21.58
2023-04-11T10:33:10.127Z,21.05
2023-04-11T10:35:55.628Z,21.00
2023-04-11T10:38:37.169Z,20.85
2023-04-11T10:41:31.292Z,19.40
2023-04-11T10:44:14.762Z,17.77
2023-04-11T10:46:45.396Z,17.40
2023-04-11T10:49:11.991Z,16.52
2023-04-11T10:51:38.437Z,16.02
2023-04-11T10:54:05.169Z,15.55
2023-04-11T10:56:58.575Z,14.23
2023-04-11T10:59:31.073Z,12.93
2023-04-11T11:02:02.119Z,12.30
2023-04-11T11:04:32.497Z,12.18
2023-04-11T11:07:01.387Z,11.40
2023-04-11T11:09:28.771Z,10.63
2023-04-11T11:12:14.039Z,10.60
2023-04-11T11:14:42.958Z,9.82
2023-04-11T11:17:11.834Z,9.90
2023-04-11T11:19:43.772Z,9.50
2023-04-11T11:22:17.185Z,9.80
2023-04-11T11:24:43.649Z,9.73
2023-04-11T11:27:19.913Z,9.70
2023-04-11T11:29:46.437Z,9.50
2023-04-11T11:32:22.879Z,9.38
2023-04-11T11:34:49.458Z,9.65
2023-04-11T11:37:16.265Z,9.68
2023-04-11T11:39:43.590Z,9.93
2023-04-11T11:42:10.370Z,10.38
2023-04-11T11:44:37.560Z,10.57
2023-04-11T11:47:06.276Z,10.55
2023-04-11T11:49:46.915Z,10.50
2023-04-11T11:52:31.676Z,10.40
2023-04-11T11:54:58.414Z,10.60
2023-04-11T11:57:24.932Z,9.88
2023-04-11T11:59:56.165Z,10.38
2023-04-11T12:02:27.346Z,9.80
2023-04-11T12:05:01.311Z,9.88
2023-04-11T12:07:32.544Z,10.52
2023-04-11T12:10:09.019Z,9.73
2023-04-11T12:12:38.015Z,9.60
2023-04-11T12:15:17.117Z,9.40
2023-04-11T12:17:47.559Z,9.75
2023-04-11T12:20:15.768Z,9.90
2023-04-11T12:22:42.620Z,9.90
2023-04-11T12:25:11.634Z,9.82
2023-04-11T12:27:39.562Z,10.35
2023-04-11T12:30:06.811Z,11.00
2023-04-11T12:32:34.311Z,11.43
2023-04-11T12:35:05.271Z,10.40
2023-04-11T12:37:33.242Z,10.40
2023-04-11T12:40:00.355Z,10.13
2023-04-11T12:42:27.554Z,10.20
2023-04-11T12:44:54.724Z,10.55
2023-04-11T12:47:21.332Z,10.50
2023-04-11T12:49:47.851Z,10.45
2023-04-11T12:52:14.314Z,10.35
2023-04-11T12:54:41.178Z,10.18
2023-04-11T12:57:07.955Z,10.23
2023-04-11T12:59:34.555Z,10.00
2023-04-11T13:02:01.986Z,9.93
2023-04-11T13:04:28.794Z,10.65
2023-04-11T13:07:00.709Z,9.73
2023-04-11T13:09:34.217Z,10.57
2023-04-11T13:12:04.098Z,10.30
2023-04-11T13:14:31.015Z,10.90
2023-04-11T13:16:57.791Z,11.20
2023-04-11T13:19:24.295Z,10.73
2023-04-11T13:21:50.825Z,10.68
2023-04-11T13:24:17.434Z,11.70
2023-04-11T13:26:44.964Z,11.27
2023-04-11T13:29:12.200Z,11.43
2023-04-11T13:31:39.037Z,11.77
2023-04-11T13:34:05.576Z,14.77
2023-04-11T13:36:32.359Z,17.27
2023-04-11T13:38:59.163Z,20.48
2023-04-11T13:41:26.009Z,21.02
2023-04-11T13:43:53.005Z,20.25
2023-04-11T13:46:21.734Z,19.70
2023-04-11T13:48:48.593Z,19.60
2023-04-11T13:51:15.187Z,21.60
2023-04-11T13:53:45.539Z,25.23
2023-04-11T13:58:39.005Z,28.15
2023-04-11T14:01:06.872Z,27.33
2023-04-11T14:03:33.835Z,27.42
2023-04-11T14:06:01.551Z,29.63
2023-04-11T14:08:29.113Z,26.95
2023-04-11T14:10:55.797Z,26.63
2023-04-11T14:13:22.352Z,26.27
2023-04-11T14:15:54.727Z,25.73
2023-04-11T14:18:31.824Z,25.55
2023-04-11T14:21:01.113Z,25.10
2023-04-11T14:23:28.997Z,25.83
2023-04-11T14:25:55.473Z,27.05
2023-04-11T14:28:22.338Z,27.08
2023-04-11T14:30:48.919Z,27.17
2023-04-11T14:33:15.668Z,28.58
2023-04-11T14:35:42.832Z,28.38
2023-04-11T14:38:09.308Z,28.60
2023-04-11T14:40:35.762Z,28.60
2023-04-11T14:43:02.299Z,27.85
2023-04-11T14:45:28.788Z,26.15
2023-04-11T14:47:55.305Z,25.50
2023-04-11T14:50:21.821Z,22.92
2023-04-11T14:52:48.629Z,23.15
2023-04-11T14:55:15.156Z,22.38
2023-04-11T14:57:44.308Z,21.70
2023-04-11T15:00:17.984Z,21.20
2023-04-11T15:02:45.608Z,20.08
2023-04-11T15:05:15.776Z,20.35
2023-04-11T15:07:42.879Z,22.10
2023-04-11T15:10:09.769Z,24.63
2023-04-11T15:12:36.234Z,24.88
2023-04-11T15:15:03.348Z,24.65
2023-04-11T15:17:29.784Z,24.30
2023-04-11T15:19:56.954Z,24.20
2023-04-11T15:22:23.624Z,24.35
2023-04-11T15:24:50.945Z,24.10
2023-04-11T15:27:20.940Z,25.45
2023-04-11T15:29:47.587Z,23.38
2023-04-11T15:32:14.004Z,22.05
2023-04-11T15:34:41.983Z,21.08
2023-04-11T15:37:11.485Z,20.77
2023-04-11T15:39:37.988Z,20.30
2023-04-11T15:42:04.854Z,19.77
2023-04-11T15:44:31.326Z,19.58
2023-04-11T15:46:57.862Z,18.08
2023-04-11T15:49:24.481Z,18.52
2023-04-11T15:51:51.085Z,16.73
2023-04-11T15:54:17.543Z,16.50
2023-04-11T15:56:44.010Z,16.13
2023-04-11T15:59:12.866Z,15.45
2023-04-11T16:01:40.440Z,14.75
2023-04-11T16:04:11.364Z,14.95
2023-04-11T16:06:37.935Z,14.55
2023-04-11T16:09:04.564Z,14.00
2023-04-11T16:11:31.037Z,14.20
2023-04-11T16:13:57.972Z,13.73
2023-04-11T16:16:24.710Z,12.82
2023-04-11T16:18:52.402Z,11.60
2023-04-11T16:21:18.909Z,10.77
2023-04-11T16:23:45.691Z,10.45
2023-04-11T16:26:12.118Z,10.27
2023-04-11T16:28:38.650Z,10.13
2023-04-11T16:31:05.395Z,10.13
2023-04-11T16:33:31.824Z,10.85
2023-04-11T16:35:58.319Z,10.73
2023-04-11T16:38:24.828Z,10.80
2023-04-11T16:40:51.253Z,11.60
2023-04-11T16:43:17.791Z,12.55
2023-04-11T16:45:44.658Z,12.38
2023-04-11T16:48:11.682Z,11.90
2023-04-11T16:50:38.655Z,11.88
2023-04-11T16:53:05.262Z,15.75
2023-04-11T16:55:31.752Z,17.50
2023-04-11T16:57:58.274Z,15.43
2023-04-11T17:00:25.064Z,14.45
2023-04-11T17:02:51.717Z,12.75
2023-04-11T17:05:18.905Z,12.55
2023-04-11T17:07:45.422Z,12.40
2023-04-11T17:10:12.367Z,11.68
2023-04-11T17:12:38.952Z,15.93
2023-04-11T17:15:08.338Z,12.90
2023-04-11T17:17:35.160Z,11.50
2023-04-11T17:20:07.640Z,11.38
2023-04-11T17:22:34.060Z,12.15
2023-04-11T17:25:00.509Z,11.60
2023-04-11T17:27:27.279Z,11.50
2023-04-11T17:29:53.828Z,11.10
2023-04-11T17:32:20.339Z,11.60
2023-04-11T17:34:47.744Z,12.85
2023-04-11T17:37:14.193Z,13.68
2023-04-11T17:39:41.545Z,12.45
2023-04-11T17:42:08.175Z,13.60
2023-04-11T17:44:34.778Z,13.23
2023-04-11T17:47:01.243Z,14.63
2023-04-11T17:49:27.732Z,12.77
2023-04-11T17:51:59.133Z,12.38
2023-04-11T17:54:26.044Z,12.38
2023-04-11T17:56:52.652Z,13.18
2023-04-11T17:59:19.303Z,14.00
2023-04-11T18:01:47.013Z,13.48
2023-04-11T18:04:14.621Z,13.15
2023-04-11T18:06:42.602Z,13.15
2023-04-11T18:09:09.218Z,13.75
2023-04-11T18:11:36.305Z,13.48
2023-04-11T18:14:02.860Z,13.70
2023-04-11T18:16:29.461Z,14.18
2023-04-11T18:18:56.817Z,13.18
2023-04-11T18:21:23.222Z,13.90
2023-04-11T18:23:49.840Z,12.95
2023-04-11T18:26:16.322Z,13.10
2023-04-11T18:28:42.973Z,12.25
2023-04-11T18:31:10.282Z,13.13
2023-04-11T18:33:40.260Z,13.23
2023-04-11T18:36:08.130Z,13.70
2023-04-11T18:38:34.641Z,13.38
2023-04-11T18:41:06.701Z,12.65
2023-04-11T18:43:34.094Z,13.30
2023-04-11T18:46:03.770Z,13.38
2023-04-11T18:48:31.656Z,13.93
2023-04-11T18:50:59.434Z,13.32
2023-04-11T18:53:26.212Z,12.35
2023-04-11T18:56:05.981Z,13.10
2023-04-11T18:59:09.253Z,13.05
2023-04-11T19:01:36.996Z,12.38
2023-04-11T19:04:03.929Z,13.18
2023-04-11T19:06:30.829Z,14.00
2023-04-11T19:08:57.374Z,12.40
2023-04-11T19:11:23.832Z,13.02
2023-04-11T19:14:07.157Z,12.68
2023-04-11T19:16:40.431Z,12.50
2023-04-11T19:19:06.867Z,13.20
2023-04-11T19:21:33.378Z,12.55
2023-04-11T19:23:59.871Z,13.55
2023-04-11T19:26:27.310Z,15.32
2023-04-11T19:28:55.027Z,14.27
2023-04-11T19:31:27.131Z,15.43
2023-04-11T19:33:53.611Z,15.90
2023-04-11T19:36:20.085Z,16.38
2023-04-11T19:38:46.961Z,17.08
2023-04-11T19:41:15.039Z,16.92
2023-04-11T19:43:42.892Z,16.35
2023-04-11T19:46:12.057Z,16.40
2023-04-11T19:48:42.600Z,17.25
2023-04-11T19:51:10.508Z,16.38
2023-04-11T19:53:38.304Z,15.88
2023-04-11T19:56:07.149Z,15.82
2023-04-11T19:58:35.257Z,15.93
2023-04-11T20:01:02.955Z,15.75
2023-04-11T20:03:29.653Z,16.58
2023-04-11T20:05:56.990Z,16.90
2023-04-11T20:08:26.386Z,16.17
2023-04-11T20:10:54.368Z,16.57
2023-04-11T20:13:20.917Z,15.90
2023-04-11T20:15:47.372Z,16.10
2023-04-11T20:18:14.045Z,15.95
2023-04-11T20:20:40.517Z,16.00
2023-04-11T20:23:07.022Z,16.90
2023-04-11T20:25:34.694Z,16.00
2023-04-11T20:28:01.747Z,16.75
2023-04-11T20:30:30.052Z,18.15
2023-04-11T20:32:56.708Z,17.48
2023-04-11T20:35:23.315Z,16.60
2023-04-11T20:37:50.220Z,17.67
2023-04-11T20:40:17.254Z,17.15
2023-04-11T20:42:47.699Z,17.00
2023-04-11T20:45:16.778Z,17.80
2023-04-11T20:47:46.204Z,18.70
2023-04-11T20:50:17.486Z,18.70
2023-04-11T20:52:45.991Z,17.67
2023-04-11T20:55:16.074Z,18.48
2023-04-11T20:57:42.946Z,18.25
2023-04-11T21:00:13.853Z,17.73
2023-04-11T21:02:44.109Z,17.60
2023-04-11T21:05:12.029Z,18.55
2023-04-11T21:07:39.356Z,19.30
2023-04-11T21:10:07.371Z,19.42
2023-04-11T21:12:34.797Z,18.25
2023-04-11T21:15:02.451Z,19.48
2023-04-11T21:17:32.836Z,19.90
2023-04-11T21:20:00.535Z,19.42
2023-04-11T21:22:27.307Z,19.80
2023-04-11T21:24:53.742Z,21.35
2023-04-11T21:27:20.188Z,20.20
2023-04-11T21:29:46.697Z,20.52
2023-04-11T21:32:13.240Z,21.30
2023-04-11T21:34:39.720Z,22.00
2023-04-11T21:37:06.281Z,21.92
2023-04-11T21:39:32.682Z,21.83
2023-04-11T21:42:00.153Z,22.73
2023-04-11T21:44:26.611Z,23.27
2023-04-11T21:46:53.236Z,22.77
2023-04-11T21:49:19.788Z,23.80
2023-04-11T21:51:46.196Z,23.77
2023-04-11T21:54:12.710Z,23.00
2023-04-11T21:56:39.468Z,23.77
2023-04-11T21:59:06.094Z,23.90
2023-04-11T22:01:32.576Z,22.58
2023-04-11T22:03:59.649Z,23.75
2023-04-11T22:06:26.604Z,25.58
2023-04-11T22:08:53.139Z,25.40
2023-04-11T22:11:20.307Z,25.23
2023-04-11T22:13:48.239Z,25.98
2023-04-11T22:16:14.737Z,26.02
2023-04-11T22:18:47.398Z,26.42
2023-04-11T22:21:21.619Z,26.67
2023-04-11T22:23:55.904Z,27.30
2023-04-11T22:26:33.961Z,27.42
2023-04-11T22:29:05.370Z,27.70
2023-04-11T22:31:38.332Z,28.08
2023-04-11T22:34:05.350Z,27.88
2023-04-11T22:36:35.826Z,28.08
2023-04-11T22:39:06.791Z,27.58
2023-04-11T22:41:35.370Z,28.77
2023-04-11T22:44:02.526Z,28.27
2023-04-11T22:46:39.634Z,27.92
2023-04-11T22:49:09.637Z,28.15
2023-04-11T22:51:37.987Z,28.10
2023-04-11T22:54:05.186Z,28.58
2023-04-11T22:56:31.667Z,28.52
2023-04-11T22:58:58.524Z,29.88
2023-04-11T23:01:24.975Z,29.17
2023-04-11T23:03:51.923Z,30.80
2023-04-11T23:06:19.791Z,30.08
2023-04-11T23:08:46.666Z,30.23
2023-04-11T23:11:13.228Z,29.23
2023-04-11T23:13:39.687Z,31.05
2023-04-11T23:16:06.929Z,31.40
2023-04-11T23:18:33.356Z,32.10
2023-04-11T23:20:59.886Z,31.23
2023-04-11T23:23:26.321Z,32.83
2023-04-11T23:25:53.194Z,30.92
2023-04-11T23:28:19.803Z,32.80
2023-04-11T23:30:46.521Z,32.67
2023-04-11T23:33:13.803Z,32.55
2023-04-11T23:35:40.280Z,33.08
2023-04-11T23:38:06.902Z,33.08
2023-04-11T23:40:33.592Z,32.95
2023-04-11T23:43:00.056Z,33.72
2023-04-11T23:45:26.601Z,32.75
2023-04-11T23:47:53.208Z,32.60
2023-04-11T23:50:19.957Z,33.03
2023-04-11T23:52:47.030Z,33.35
2023-04-11T23:55:14.100Z,31.52
2023-04-11T23:57:40.652Z,33.55
